Time;durP1;ratioP1;P1;durP2;ratioP2;P2;SDS_P1;SDS_P2;PMS_P1;PMS_P2;Temp;Humidity;BMP_temperature;BMP_pressure;BME280_temperature;BME280_humidity;BME280_pressure;Samples;Min_cycle;Max_cycle;Signal;HPM_P1;HPM_P2
2022/06/22 00:00:44;;;;;;;0.20;0.10;;;;;;;;;;6126277;23;20009;-87
2022/06/22 00:03:12;;;;;;;0.20;0.10;;;;;;;;;;6151075;23;20335;-87
2022/06/22 00:05:39;;;;;;;0.20;0.10;;;;;;;;;;6152046;23;20023;-86
2022/06/22 00:08:13;;;;;;;0.22;0.15;;;;;;;;;;6151416;23;20024;-87
2022/06/22 00:10:48;;;;;;;0.30;0.30;;;;;;;;;;6151370;23;20067;-87
2022/06/22 00:13:17;;;;;;;0.20;0.10;;;;;;;;;;6151405;23;20462;-89
2022/06/22 00:15:49;;;;;;;0.20;0.10;;;;;;;;;;6150383;23;20088;-87
2022/06/22 00:18:21;;;;;;;0.20;0.10;;;;;;;;;;6150643;23;20017;-87
2022/06/22 00:20:58;;;;;;;0.20;0.20;;;;;;;;;;6150403;23;20071;-86
2022/06/22 00:23:26;;;;;;;0.20;0.10;;;;;;;;;;6150537;23;20394;-86
2022/06/22 00:25:58;;;;;;;0.20;0.10;;;;;;;;;;6149286;23;20047;-88
2022/06/22 00:28:26;;;;;;;0.20;0.10;;;;;;;;;;6149895;23;20027;-87
2022/06/22 00:30:59;;;;;;;0.20;0.10;;;;;;;;;;6150587;23;20390;-87
2022/06/22 00:33:25;;;;;;;0.20;0.05;;;;;;;;;;6151041;23;20051;-87
2022/06/22 00:35:53;;;;;;;0.20;0.00;;;;;;;;;;6126127;23;20017;-88
2022/06/22 00:38:21;;;;;;;0.20;0.10;;;;;;;;;;6149416;23;20079;-86
2022/06/22 00:40:49;;;;;;;0.20;0.10;;;;;;;;;;6148609;23;20013;-89
2022/06/22 00:43:16;;;;;;;0.20;0.10;;;;;;;;;;6151336;23;20036;-88
2022/06/22 00:45:43;;;;;;;0.20;0.10;;;;;;;;;;6150236;23;20112;-87
2022/06/22 00:48:15;;;;;;;0.20;0.10;;;;;;;;;;6152065;23;20017;-88
2022/06/22 00:50:46;;;;;;;0.20;0.10;;;;;;;;;;6151844;23;20017;-87
2022/06/22 00:53:14;;;;;;;0.20;0.10;;;;;;;;;;6152885;23;20012;-86
2022/06/22 00:55:42;;;;;;;0.20;0.10;;;;;;;;;;6151271;23;20013;-86
2022/06/22 00:58:08;;;;;;;0.20;0.10;;;;;;;;;;6151726;23;20021;-86
2022/06/22 01:00:39;;;;;;;0.20;0.00;;;;;;;;;;6150526;23;20009;-86
2022/06/22 01:03:13;;;;;;;0.20;0.10;;;;;;;;;;6151953;23;20371;-88
2022/06/22 01:05:42;;;;;;;0.20;0.10;;;;;;;;;;6154228;23;20066;-87
2022/06/22 01:08:09;;;;;;;0.20;0.10;;;;;;;;;;6153071;23;20018;-87
2022/06/22 01:10:52;;;;;;;0.20;0.10;;;;;;;;;;6153330;23;20127;-87
2022/06/22 01:13:35;;;;;;;0.20;0.00;;;;;;;;;;6153599;23;20083;-87
2022/06/22 01:16:06;;;;;;;0.20;0.10;;;;;;;;;;6154404;23;20009;-88
2022/06/22 01:18:35;;;;;;;0.20;0.10;;;;;;;;;;6154431;23;20021;-88
2022/06/22 01:21:08;;;;;;;0.20;0.10;;;;;;;;;;6155265;23;20097;-87
2022/06/22 01:23:34;;;;;;;;;;;;;;;;;;6155276;23;20013;-88
2022/06/22 01:26:14;;;;;;;0.20;0.10;;;;;;;;;;6151970;23;19912;-88
2022/06/22 01:28:40;;;;;;;0.20;0.10;;;;;;;;;;6153756;23;20131;-87
2022/06/22 01:31:12;;;;;;;0.20;0.15;;;;;;;;;;6148149;23;20028;-90
2022/06/22 01:33:40;;;;;;;0.20;0.10;;;;;;;;;;6150515;23;20025;-87
2022/06/22 01:36:08;;;;;;;0.20;0.10;;;;;;;;;;6148340;23;20040;-87
2022/06/22 01:38:37;;;;;;;0.20;0.05;;;;;;;;;;6150782;23;20020;-88
2022/06/22 01:41:09;;;;;;;0.20;0.10;;;;;;;;;;6150878;23;20020;-89
2022/06/22 01:43:58;;;;;;;0.20;0.00;;;;;;;;;;6151155;23;20020;-87
2022/06/22 01:46:27;;;;;;;0.20;0.10;;;;;;;;;;6149101;23;20071;-88
2022/06/22 01:48:57;;;;;;;0.20;0.10;;;;;;;;;;6149307;23;20032;-87
2022/06/22 01:51:27;;;;;;;0.20;0.10;;;;;;;;;;6149314;23;20013;-89
2022/06/22 01:53:57;;;;;;;0.20;0.10;;;;;;;;;;6149489;23;20041;-87
2022/06/22 01:56:28;;;;;;;0.20;0.10;;;;;;;;;;6149724;23;20009;-87
2022/06/22 01:59:11;;;;;;;0.30;0.20;;;;;;;;;;6149514;23;20332;-87
2022/06/22 02:01:40;;;;;;;0.20;0.10;;;;;;;;;;6150325;23;20048;-86
2022/06/22 02:04:06;;;;;;;0.20;0.10;;;;;;;;;;6149224;23;20016;-87
2022/06/22 02:09:26;;;;;;;0.20;0.10;;;;;;;;;;6176210;23;20033;-88
2022/06/22 02:12:18;;;;;;;0.20;0.10;;;;;;;;;;6149679;23;20016;-87
2022/06/22 02:14:43;;;;;;;0.20;0.10;;;;;;;;;;6172338;23;20017;-87
2022/06/22 02:17:11;;;;;;;0.20;0.10;;;;;;;;;;6149567;23;20121;-89
2022/06/22 02:19:39;;;;;;;0.20;0.10;;;;;;;;;;6147776;23;20013;-86
2022/06/22 02:22:06;;;;;;;0.20;0.10;;;;;;;;;;6148815;23;20099;-87
2022/06/22 02:24:34;;;;;;;0.20;0.00;;;;;;;;;;6125207;23;20089;-87
2022/06/22 02:27:03;;;;;;;0.20;0.10;;;;;;;;;;6150189;23;20462;-88
2022/06/22 02:29:34;;;;;;;0.20;0.10;;;;;;;;;;6147794;23;20052;-88
2022/06/22 02:32:02;;;;;;;0.20;0.10;;;;;;;;;;6149232;23;20013;-88
2022/06/22 02:34:29;;;;;;;0.20;0.10;;;;;;;;;;6148060;23;20024;-87
2022/06/22 02:36:57;;;;;;;0.20;0.00;;;;;;;;;;6124977;23;20023;-88
2022/06/22 02:39:25;;;;;;;0.20;0.10;;;;;;;;;;6125081;23;20473;-87
2022/06/22 02:44:41;;;;;;;0.20;0.10;;;;;;;;;;6176100;23;20346;-87
2022/06/22 02:47:13;;;;;;;0.20;0.10;;;;;;;;;;6149628;23;20017;-88
2022/06/22 02:49:40;;;;;;;;;;;;;;;;;;6148681;23;20095;-88
2022/06/22 02:52:08;;;;;;;0.20;0.10;;;;;;;;;;6148306;23;19922;-88
2022/06/22 02:55:07;;;;;;;0.20;0.10;;;;;;;;;;6146739;23;20036;-88
2022/06/22 02:57:46;;;;;;;0.20;0.10;;;;;;;;;;6069645;23;20060;-88
2022/06/22 03:00:13;;;;;;;0.20;0.10;;;;;;;;;;6148982;23;20017;-87
2022/06/22 03:02:41;;;;;;;0.20;0.10;;;;;;;;;;6150835;23;20442;-87
2022/06/22 03:05:07;;;;;;;0.20;0.10;;;;;;;;;;6149672;23;20024;-87
2022/06/22 03:07:37;;;;;;;0.20;0.10;;;;;;;;;;6126671;23;20017;-87
2022/06/22 03:10:04;;;;;;;0.20;0.10;;;;;;;;;;6150915;23;20017;-88
2022/06/22 03:12:30;;;;;;;0.20;0.10;;;;;;;;;;6126266;23;20095;-87
2022/06/22 03:15:02;;;;;;;0.20;0.10;;;;;;;;;;6151687;23;20035;-87
2022/06/22 03:17:38;;;;;;;0.20;0.10;;;;;;;;;;6151125;23;20143;-87
2022/06/22 03:20:04;;;;;;;0.20;0.10;;;;;;;;;;6150535;23;20013;-88
2022/06/22 03:22:33;;;;;;;0.20;0.10;;;;;;;;;;6150963;23;20052;-87
2022/06/22 03:25:18;;;;;;;0.20;0.10;;;;;;;;;;6151552;23;20017;-87
2022/06/22 03:27:46;;;;;;;0.20;0.10;;;;;;;;;;6149726;23;20017;-88
2022/06/22 03:30:14;;;;;;;0.20;0.10;;;;;;;;;;6151626;23;20279;-87
2022/06/22 03:32:43;;;;;;;0.20;0.10;;;;;;;;;;6150498;23;20343;-87
2022/06/22 03:35:12;;;;;;;0.20;0.15;;;;;;;;;;6150736;23;20044;-87
2022/06/22 03:37:50;;;;;;;0.20;0.10;;;;;;;;;;6152197;23;20274;-86
2022/06/22 03:40:20;;;;;;;0.20;0.10;;;;;;;;;;6150527;23;20013;-87
2022/06/22 03:42:49;;;;;;;0.20;0.10;;;;;;;;;;6152249;23;20158;-86
2022/06/22 03:45:18;;;;;;;0.40;0.20;;;;;;;;;;6151118;23;20013;-86
2022/06/22 03:47:56;;;;;;;0.20;0.10;;;;;;;;;;6151688;23;20071;-87
2022/06/22 03:50:28;;;;;;;0.20;0.10;;;;;;;;;;6151061;23;20067;-87
2022/06/22 03:52:54;;;;;;;0.20;0.10;;;;;;;;;;6154240;23;20020;-88
2022/06/22 03:55:22;;;;;;;0.20;0.10;;;;;;;;;;6149964;23;20009;-89
2022/06/22 03:57:50;;;;;;;0.20;0.10;;;;;;;;;;6152221;23;20020;-87
2022/06/22 04:00:17;;;;;;;0.20;0.20;;;;;;;;;;6149466;23;20394;-87
2022/06/22 04:02:44;;;;;;;0.20;0.10;;;;;;;;;;6149339;23;20020;-87
2022/06/22 04:05:16;;;;;;;0.20;0.10;;;;;;;;;;6123640;23;20017;-87
2022/06/22 04:07:43;;;;;;;0.20;0.10;;;;;;;;;;6149194;23;20013;-87
2022/06/22 04:10:19;;;;;;;0.20;0.10;;;;;;;;;;6173404;23;20118;-87
2022/06/22 04:12:47;;;;;;;0.30;0.30;;;;;;;;;;6150195;23;20017;-88
2022/06/22 04:15:33;;;;;;;0.20;0.10;;;;;;;;;;6150824;23;20343;-86
2022/06/22 04:18:01;;;;;;;0.20;0.20;;;;;;;;;;6150537;23;20013;-86
2022/06/22 04:20:52;;;;;;;0.20;0.10;;;;;;;;;;6148671;23;20216;-87
2022/06/22 04:23:31;;;;;;;0.20;0.10;;;;;;;;;;6150874;23;20056;-86
2022/06/22 04:26:00;;;;;;;0.20;0.03;;;;;;;;;;6173500;23;20405;-87
2022/06/22 04:28:29;;;;;;;0.20;0.10;;;;;;;;;;6150097;23;20021;-87
2022/06/22 04:30:56;;;;;;;0.20;0.10;;;;;;;;;;6148611;23;20119;-86
2022/06/22 04:33:32;;;;;;;0.75;0.10;;;;;;;;;;6124443;23;20052;-87
2022/06/22 04:36:17;;;;;;;0.20;0.10;;;;;;;;;;6145369;23;20052;-87
2022/06/22 04:39:01;;;;;;;0.20;0.10;;;;;;;;;;6146731;23;20017;-87
2022/06/22 04:41:38;;;;;;;0.20;0.10;;;;;;;;;;6170324;23;20043;-87
2022/06/22 04:44:05;;;;;;;0.20;0.10;;;;;;;;;;6144138;23;20119;-87
2022/06/22 04:46:36;;;;;;;0.20;0.10;;;;;;;;;;6145101;23;20032;-87
2022/06/22 04:49:13;;;;;;;0.20;0.10;;;;;;;;;;6144857;23;20024;-88
2022/06/22 04:51:44;;;;;;;0.20;0.10;;;;;;;;;;6145176;23;20021;-86
2022/06/22 04:54:18;;;;;;;0.20;0.10;;;;;;;;;;6146020;23;20028;-90
2022/06/22 04:56:48;;;;;;;0.20;0.10;;;;;;;;;;6149287;23;20032;-87
2022/06/22 04:59:15;;;;;;;0.35;0.30;;;;;;;;;;6145729;23;20017;-89
2022/06/22 05:01:47;;;;;;;0.20;0.10;;;;;;;;;;6147722;23;20419;-90
2022/06/22 05:04:16;;;;;;;0.20;0.10;;;;;;;;;;6147393;23;20009;-88
2022/06/22 05:07:04;;;;;;;0.20;0.10;;;;;;;;;;6142239;23;20017;-88
2022/06/22 05:09:40;;;;;;;0.68;0.63;;;;;;;;;;6144427;23;20024;-86
2022/06/22 05:12:19;;;;;;;0.20;0.20;;;;;;;;;;6147892;23;20069;-88
2022/06/22 05:14:45;;;;;;;0.20;0.20;;;;;;;;;;6144666;23;20024;-88
2022/06/22 05:17:27;;;;;;;0.20;0.10;;;;;;;;;;6146243;23;20013;-89
2022/06/22 05:19:53;;;;;;;0.20;0.10;;;;;;;;;;6143960;23;20013;-87
2022/06/22 05:22:19;;;;;;;0.20;0.10;;;;;;;;;;6144421;23;20013;-88
2022/06/22 05:24:50;;;;;;;0.20;0.10;;;;;;;;;;6118097;23;20349;-87
2022/06/22 05:27:22;;;;;;;0.20;0.10;;;;;;;;;;6145466;23;20019;-87
2022/06/22 05:29:52;;;;;;;0.20;0.10;;;;;;;;;;6146437;23;20064;-87
2022/06/22 05:32:24;;;;;;;0.20;0.00;;;;;;;;;;6149715;23;20098;-86
2022/06/22 05:34:51;;;;;;;;;;;;;;;;;;6150140;23;20186;-87
2022/06/22 05:41:04;;;;;;;0.20;0.10;;;;;;;;;;6175704;23;20101;-89
2022/06/22 05:47:56;;;;;;;0.20;0.10;;;;;;;;;;6115407;23;20033;-88
2022/06/22 05:50:40;;;;;;;0.32;0.32;;;;;;;;;;6070459;23;20021;-87
2022/06/22 05:53:12;;;;;;;0.20;0.10;;;;;;;;;;6069693;23;20010;-87
2022/06/22 05:55:45;;;;;;;0.20;0.10;;;;;;;;;;6129498;23;20013;-88
2022/06/22 05:58:11;;;;;;;0.20;0.10;;;;;;;;;;6154340;23;20020;-87
2022/06/22 06:00:48;;;;;;;0.20;0.10;;;;;;;;;;6153084;23;20012;-87
2022/06/22 06:03:37;;;;;;;0.20;0.10;;;;;;;;;;6153750;23;20425;-87
2022/06/22 06:06:09;;;;;;;0.20;0.10;;;;;;;;;;6152814;23;20021;-87
2022/06/22 06:08:41;;;;;;;0.22;0.20;;;;;;;;;;6153446;23;20079;-87
2022/06/22 06:11:10;;;;;;;0.20;0.10;;;;;;;;;;6157395;23;20013;-86
2022/06/22 06:13:41;;;;;;;0.75;0.75;;;;;;;;;;6151538;23;20020;-88
2022/06/22 06:16:16;;;;;;;0.20;0.10;;;;;;;;;;6152763;23;20082;-88
2022/06/22 06:18:44;;;;;;;0.20;0.10;;;;;;;;;;6153546;23;20013;-86
2022/06/22 06:21:18;;;;;;;0.20;0.10;;;;;;;;;;6153967;23;20489;-86
2022/06/22 06:24:00;;;;;;;0.23;0.20;;;17.60;99.90;;;;;;6152959;23;20015;-87
2022/06/22 06:29:19;;;;;;;;;;;;;;;;;;6177922;23;20021;-89
2022/06/22 06:32:08;;;;;;;0.20;0.10;;;;;;;;;;6152823;23;19923;-87
2022/06/22 06:34:40;;;;;;;0.20;0.10;;;;;;;;;;6153012;23;20458;-88
2022/06/22 06:37:12;;;;;;;0.20;0.10;;;;;;;;;;6153040;23;20357;-88
2022/06/22 06:39:42;;;;;;;0.20;0.10;;;;;;;;;;6151528;23;20052;-89
2022/06/22 06:42:17;;;;;;;0.20;0.10;;;;;;;;;;6151916;23;20095;-88
2022/06/22 06:44:44;;;;;;;0.20;0.08;;;;;;;;;;6157108;23;20023;-86
2022/06/22 06:47:21;;;;;;;0.50;0.32;;;;;;;;;;6153551;23;20017;-87
2022/06/22 06:49:54;;;;;;;0.20;0.10;;;;;;;;;;6153379;23;20017;-86
2022/06/22 06:52:20;;;;;;;0.20;0.20;;;;;;;;;;6152808;23;20028;-87
2022/06/22 06:55:02;;;;;;;0.20;0.13;;;;;;;;;;6153814;23;20012;-86
2022/06/22 06:57:29;;;;;;;0.20;0.10;;;;;;;;;;6153113;23;20024;-87
2022/06/22 06:59:57;;;;;;;0.20;0.20;;;;;;;;;;6129323;23;20120;-87
2022/06/22 07:02:31;;;;;;;0.20;0.10;;;;;;;;;;6153340;23;20343;-88
2022/06/22 07:04:58;;;;;;;0.20;0.10;;;;;;;;;;6150887;23;20017;-88
2022/06/22 07:07:34;;;;;;;0.20;0.20;;;;;;;;;;6153106;23;20013;-89
2022/06/22 07:10:04;;;;;;;0.20;0.10;;;;;;;;;;6152172;23;20537;-87
2022/06/22 07:12:37;;;;;;;0.20;0.10;;;;;;;;;;6152664;23;20013;-87
2022/06/22 07:15:06;;;;;;;0.20;0.10;;;;;;;;;;6127867;23;20066;-88
2022/06/22 07:17:33;;;;;;;0.20;0.17;;;;;;;;;;6162047;23;20065;-88
2022/06/22 07:20:04;;;;;;;0.20;0.10;;;;;;;;;;6152722;23;20020;-89
2022/06/22 07:22:33;;;;;;;0.30;0.20;;;;;;;;;;6150838;23;20064;-88
2022/06/22 07:25:05;;;;;;;0.20;0.10;;;;;;;;;;6151069;23;20075;-91
2022/06/22 07:27:47;;;;;;;0.20;0.10;;;;;;;;;;6152198;23;20017;-89
2022/06/22 07:30:13;;;;;;;0.30;0.20;;;;;;;;;;6152219;23;20027;-90
2022/06/22 07:32:44;;;;;;;0.20;0.10;;;;;;;;;;6153247;23;20049;-91
2022/06/22 07:35:13;;;;;;;0.20;0.10;;;;;;;;;;6177612;23;20044;-89
2022/06/22 07:37:43;;;;;;;0.20;0.10;;;;;;;;;;6152422;23;20350;-88
2022/06/22 07:40:17;;;;;;;0.52;0.25;;;;;;;;;;6152182;23;20378;-87
2022/06/22 07:42:46;;;;;;;0.57;0.57;;;;;;;;;;6152799;23;20441;-87
2022/06/22 07:45:17;;;;;;;0.40;0.40;;;;;;;;;;6151853;23;20017;-88
2022/06/22 07:47:55;;;;;;;0.40;0.22;;;;;;;;;;6152190;23;20446;-87
2022/06/22 07:50:27;;;;;;;0.20;0.10;;;;;;;;;;6155879;23;20013;-88
2022/06/22 07:53:02;;;;;;;0.20;0.10;;;;;;;;;;6154145;23;20100;-89
2022/06/22 07:55:48;;;;;;;0.20;0.10;;;;;;;;;;6151420;23;20017;-89
2022/06/22 07:58:18;;;;;;;0.20;0.10;;;;;;;;;;6151394;23;20662;-86
2022/06/22 08:00:45;;;;;;;0.20;0.10;;;;;;;;;;6152266;23;20059;-87
2022/06/22 08:03:21;;;;;;;0.20;0.10;;;;;;;;;;6153388;23;20016;-88
2022/06/22 08:05:49;;;;;;;0.20;0.10;;;;;;;;;;6153277;23;20064;-88
2022/06/22 08:08:20;;;;;;;0.20;0.10;;;;;;;;;;6153152;23;20040;-90
2022/06/22 08:11:18;;;;;;;0.30;0.30;;;15.10;99.90;;;;;;6156102;23;20025;-88
2022/06/22 08:13:47;;;;;;;0.20;0.10;;;;;;;;;;6152050;23;20120;-88
2022/06/22 08:16:25;;;;;;;0.25;0.20;;;;;;;;;;6152285;23;20048;-87
2022/06/22 08:18:52;;;;;;;0.20;0.10;;;;;;;;;;6153335;23;20517;-91
2022/06/22 08:21:20;;;;;;;0.20;0.10;;;;;;;;;;6153442;23;20017;-90
2022/06/22 08:23:55;;;;;;;0.80;0.80;;;;;;;;;;6155606;23;20381;-88
2022/06/22 08:26:41;;;;;;;0.20;0.10;;;;;;;;;;6152339;23;20096;-89
2022/06/22 08:29:07;;;;;;;0.20;0.10;;;;;;;;;;6152053;23;20343;-89
2022/06/22 08:31:46;;;;;;;0.20;0.10;;;;;;;;;;6178720;23;20064;-90
2022/06/22 08:34:15;;;;;;;0.20;0.10;;;;;;;;;;6152999;23;20326;-89
2022/06/22 08:36:44;;;;;;;0.35;0.15;;;;;;;;;;6152171;23;20039;-88
2022/06/22 08:42:24;;;;;;;0.20;0.10;;;;;;;;;;6176811;23;20021;-87
2022/06/22 08:45:09;;;;;;;0.63;0.35;;;;;;;;;;6151743;23;20067;-89
2022/06/22 08:47:44;;;;;;;0.20;0.10;;;;;;;;;;6151946;23;20024;-87
2022/06/22 08:50:34;;;;;;;0.20;0.10;;;;;;;;;;6153254;23;20445;-90
2022/06/22 08:55:56;;;;;;;0.20;0.10;;;;;;;;;;6178154;23;20021;-88
2022/06/22 08:58:30;;;;;;;0.20;0.10;;;;;;;;;;6132583;23;20028;-89
2022/06/22 09:01:15;;;;;;;0.30;0.28;;;;;;;;;;6128126;23;20016;-88
2022/06/22 09:03:52;;;;;;;0.20;0.17;;;;;;;;;;6126988;23;20035;-88
2022/06/22 09:06:34;;;;;;;1.05;0.20;;;;;;;;;;6128461;23;20346;-88
2022/06/22 09:09:17;;;;;;;1.30;0.40;;;;;;;;;;6128447;23;20017;-90
2022/06/22 09:11:49;;;;;;;0.20;0.10;;;;;;;;;;6127536;23;20353;-88
2022/06/22 09:14:15;;;;;;;;;;;;;;;;;;6127402;23;20461;-89
2022/06/22 09:17:01;;;;;;;0.20;0.10;;;;;;;;;;6151675;23;19918;-87
2022/06/22 09:19:35;;;;;;;0.20;0.10;;;;;;;;;;6126896;23;20012;-88
2022/06/22 09:22:10;;;;;;;0.30;0.30;;;;;;;;;;6128655;23;20560;-90
2022/06/22 09:24:45;;;;;;;0.20;0.10;;;;;;;;;;6127017;23;20013;-88
2022/06/22 09:27:11;;;;;;;0.20;0.10;;;;;;;;;;6128671;23;20092;-89
2022/06/22 09:29:56;;;;;;;0.20;0.10;;;;;;;;;;6128323;23;20075;-87
2022/06/22 09:32:28;;;;;;;0.20;0.10;;;;;;;;;;6130905;23;20083;-89
2022/06/22 09:35:04;;;;;;;0.30;0.28;;;;;;;;;;6127432;23;20414;-89
2022/06/22 09:37:49;;;;;;;0.20;0.15;;;;;;;;;;6126148;23;20351;-90
2022/06/22 09:40:30;;;;;;;0.20;0.10;;;;;;;;;;6126609;23;20019;-88
2022/06/22 09:43:08;;;;;;;0.22;0.22;;;;;;;;;;6128076;23;20056;-91
2022/06/22 09:45:47;;;;;;;0.20;0.10;;;;;;;;;;6127555;23;20067;-88
2022/06/22 09:48:32;;;;;;;0.73;0.65;;;;;;;;;;6127899;23;20013;-88
2022/06/22 09:51:11;;;;;;;0.20;0.10;;;;;;;;;;6126265;23;20017;-92
2022/06/22 09:54:06;;;;;;;0.20;0.20;;;;;;;;;;6127274;23;20052;-90
2022/06/22 09:56:46;;;;;;;0.20;0.10;;;;;;;;;;6128414;23;20088;-91
2022/06/22 09:59:29;;;;;;;0.20;0.10;;;;;;;;;;6128404;23;20021;-90
2022/06/22 10:02:16;;;;;;;0.20;0.15;;;;;;;;;;6130001;23;20013;-88
2022/06/22 10:04:45;;;;;;;0.20;0.10;;;;;;;;;;6131438;23;20101;-88
2022/06/22 10:07:11;;;;;;;0.20;0.10;;;;;;;;;;6129346;23;20315;-89
2022/06/22 10:09:41;;;;;;;0.20;0.10;;;;;;;;;;6128023;23;20091;-89
2022/06/22 10:12:27;;;;;;;0.20;0.10;;;;;;;;;;6129221;23;20009;-88
2022/06/22 10:15:29;;;;;;;0.20;0.10;;;;;;;;;;6127248;23;20023;-88
2022/06/22 10:18:24;;;;;;;1.05;0.20;;;;;;;;;;6129115;23;20332;-88
2022/06/22 10:21:25;;;;;;;0.20;0.13;;;;;;;;;;6126062;23;20009;-89
2022/06/22 10:24:16;;;;;;;0.20;0.15;;;;;;;;;;6077396;23;20016;-89
2022/06/22 10:30:03;;;;;;;0.50;0.30;;;;;;;;;;6147781;23;20406;-88
2022/06/22 10:32:40;;;;;;;0.20;0.10;;;;;;;;;;6127662;23;20355;-88
2022/06/22 10:35:30;;;;;;;0.30;0.25;;;;;;;;;;6128427;23;20020;-88
2022/06/22 10:37:56;;;;;;;0.20;0.10;;;;;;;;;;6078796;23;20047;-87
2022/06/22 10:46:12;;;;;;;0.20;0.10;;;;;;;;;;6152483;23;20489;-89
2022/06/22 10:48:47;;;;;;;0.20;0.10;;;;;;;;;;6127656;23;20444;-88
2022/06/22 10:51:29;;;;;;;0.20;0.10;;;;;;;;;;6152856;23;20484;-88
2022/06/22 10:53:55;;;;;;;0.20;0.10;;;;;;;;;;6129039;23;20013;-90
2022/06/22 10:56:27;;;;;;;0.20;0.10;;;;;;;;;;6129268;23;20269;-88
2022/06/22 10:58:53;;;;;;;;;;;;;;;;;;6129090;23;20016;-89
2022/06/22 11:04:53;;;;;;;0.20;0.10;;;;;;;;;;6172868;23;20017;-91
2022/06/22 11:07:19;;;;;;;0.20;0.10;;;;;;;;;;6127059;23;20095;-90
2022/06/22 11:10:00;;;;;;;0.20;0.10;;;;;;;;;;6131588;23;20035;-89
2022/06/22 11:12:36;;;;;;;0.20;0.10;;;;;;;;;;6127374;23;20051;-88
2022/06/22 11:15:09;;;;;;;0.20;0.10;;;;;;;;;;6151407;23;20083;-89
2022/06/22 11:17:36;;;;;;;0.20;0.10;;;;;;;;;;6127602;23;20378;-88
2022/06/22 11:20:11;;;;;;;0.30;0.20;;;;;;;;;;6128690;23;20013;-88
2022/06/22 11:22:42;;;;;;;0.20;0.13;;;;;;;;;;6128197;23;20051;-87
2022/06/22 11:30:48;;;;;;;0.20;0.10;;;;;;;;;;6130699;23;20039;-90
2022/06/22 11:31:30;;;;;;;0.30;0.10;;;;;;;;;;6123876;23;20020;-90
2022/06/22 11:34:16;;;;;;;0.20;0.10;;;;;;;;;;6127819;23;20398;-88
2022/06/22 11:37:01;;;;;;;0.85;0.55;;;;;;;;;;6126547;23;20023;-88
2022/06/22 11:39:46;;;;;;;0.30;0.20;;;;;;;;;;6128202;23;20450;-91
2022/06/22 11:42:19;;;;;;;1.15;0.80;;;;;;;;;;6133178;23;20454;-90
2022/06/22 11:47:50;;;;;;;0.40;0.40;;;;;;;;;;6152697;23;20096;-87
2022/06/22 11:50:30;;;;;;;0.20;0.10;;;;;;;;;;6128074;23;20009;-89
2022/06/22 11:53:19;;;;;;;0.20;0.10;;;;;;;;;;6125851;23;20354;-88
2022/06/22 11:55:49;;;;;;;0.20;0.15;;;;;;;;;;6073039;23;20462;-90
2022/06/22 11:58:15;;;;;;;0.20;0.20;;;;;;;;;;6125844;23;20008;-87
2022/06/22 12:04:14;;;;;;;0.20;0.10;;;;;;;;;;6048206;23;20058;-89
2022/06/22 12:06:59;;;;;;;2.38;0.20;;;;;;;;;;6127969;23;20048;-87
2022/06/22 12:09:45;;;;;;;0.30;0.30;;;;;;;;;;6128798;23;20446;-91
2022/06/22 12:12:14;;;;;;;0.20;0.10;;;;;;;;;;6129705;23;20052;-86
2022/06/22 12:15:09;;;;;;;0.20;0.10;;;;;;;;;;6127546;23;20060;-89
2022/06/22 12:18:27;;;;;;;0.20;0.10;;;;;;;;;;6126168;23;20044;-90
2022/06/22 12:20:49;;;;;;;0.30;0.20;;;;;;;;;;6145502;23;20021;-89
2022/06/22 12:23:21;;;;;;;0.20;0.20;;;;;;;;;;6126681;23;20013;-88
2022/06/22 12:25:50;;;;;;;;;;;;;;;;;;6126755;23;20095;-89
2022/06/22 12:28:38;;;;;;;0.20;0.10;;;;;;;;;;6128353;23;20189;-89
2022/06/22 12:31:18;;;;;;;0.20;0.10;;;;;;;;;;6127478;23;20108;-89
2022/06/22 12:33:50;;;;;;;0.20;0.10;;;;;;;;;;6126017;23;20017;-91
2022/06/22 12:36:21;;;;;;;0.20;0.10;;;;;;;;;;6127716;23;20017;-88
2022/06/22 12:38:51;;;;;;;0.20;0.13;;;;;;;;;;6126259;23;20033;-88
2022/06/22 12:41:21;;;;;;;0.20;0.10;;;;;;;;;;6127334;23;20020;-87
2022/06/22 12:44:14;;;;;;;0.20;0.10;;;;;;;;;;6127669;23;20017;-90
2022/06/22 12:46:41;;;;;;;0.57;0.20;;;;;;;;;;6126717;23;20100;-90
2022/06/22 12:49:25;;;;;;;0.20;0.10;;;;;;;;;;6127504;23;20128;-91
2022/06/22 12:52:10;;;;;;;0.28;0.17;;;;;;;;;;6127014;23;20028;-88
2022/06/22 12:54:39;;;;;;;0.20;0.10;;;;;;;;;;6125319;23;20517;-89
2022/06/22 12:57:18;;;;;;;0.20;0.10;;;;;;;;;;6128341;23;20017;-88
2022/06/22 12:59:58;;;;;;;0.20;0.20;;;;;;;;;;6127935;23;20039;-90
2022/06/22 13:02:27;;;;;;;0.20;0.20;;;;;;;;;;6127476;23;20095;-87
2022/06/22 13:08:25;;;;;;;0.25;0.20;;;;;;;;;;6122118;23;20350;-86
2022/06/22 13:10:59;;;;;;;0.68;0.30;;;;;;;;;;6098220;23;20022;-86
2022/06/22 13:13:50;;;;;;;0.20;0.10;;;;;;;;;;6098727;23;20017;-85
2022/06/22 13:16:22;;;;;;;0.38;0.20;;;;;;;;;;6094355;23;20029;-87
2022/06/22 13:22:43;;;;;;;0.20;0.20;;;;;;;;;;6140716;23;20501;-86
2022/06/22 13:25:09;;;;;;;0.20;0.10;;;;;;;;;;6092932;23;20024;-89
2022/06/22 13:27:57;;;;;;;0.95;0.25;;;;;;;;;;6095080;23;20462;-86
2022/06/22 13:30:38;;;;;;;2.67;0.32;;;;;;;;;;6094035;23;20519;-85
2022/06/22 13:33:35;;;;;;;0.20;0.10;;;;;;;;;;6096055;23;20014;-85
2022/06/22 13:36:08;;;;;;;0.25;0.17;;;;;;;;;;6096467;23;20039;-86
2022/06/22 13:39:13;;;;;;;;;;;;;;;;;;;;;
2022/06/22 13:42:04;;;;;;;0.20;0.20;;;;;;;;;;6114968;23;20064;-84
2022/06/22 13:44:33;;;;;;;0.20;0.10;;;;;;;;;;6093426;23;20347;-86
2022/06/22 13:47:05;;;;;;;0.50;0.50;;;;;;;;;;6094148;23;20029;-87
2022/06/22 13:50:04;;;;;;;0.22;0.22;;;;;;;;;;6096790;23;20306;-85
2022/06/22 13:52:44;;;;;;;0.20;0.10;;;;;;;;;;6097435;23;20114;-88
2022/06/22 13:55:22;;;;;;;0.30;0.20;;;;;;;;;;6095579;23;20022;-86
2022/06/22 13:57:58;;;;;;;0.20;0.10;;;;;;;;;;6099906;23;20045;-87
2022/06/22 14:00:44;;;;;;;0.60;0.30;;;;;;;;;;6097846;23;20014;-86
2022/06/22 14:03:37;;;;;;;0.20;0.20;;;;;;;;;;6099194;23;20047;-88
2022/06/22 14:06:21;;;;;;;0.30;0.13;;;;;;;;;;6129630;23;20509;-89
2022/06/22 14:08:59;;;;;;;0.28;0.20;;;;;;;;;;6153127;23;20100;-86
2022/06/22 14:11:29;;;;;;;0.20;0.10;;;;;;;;;;6152874;23;20153;-85
2022/06/22 14:14:24;;;;;;;1.27;0.30;;;;;;;;;;6178078;23;20186;-89
2022/06/22 14:17:12;;;;;;;0.20;0.10;;;;;;;;;;6152861;23;20359;-88
2022/06/22 14:19:46;;;;;;;0.22;0.22;;;;;;;;;;6151233;23;20013;-88
2022/06/22 14:22:43;;;;;;;0.20;0.10;;;;;;;;;;6150996;23;20295;-85
2022/06/22 14:25:32;;;;;;;0.20;0.20;;;;;;;;;;6128391;23;20017;-86
2022/06/22 14:28:21;;;;;;;0.30;0.30;;;;;;;;;;6138160;23;20017;-88
2022/06/22 14:30:53;;;;;;;1.50;0.75;;;;;;;;;;6098409;23;20354;-88
2022/06/22 14:33:38;;;;;;;0.40;0.22;;;;;;;;;;6152498;23;20028;-87
2022/06/22 14:36:10;;;;;;;0.38;0.38;;;;;;;;;;6154740;23;20013;-87
2022/06/22 14:38:45;;;;;;;;;;;;;;;;;;6154498;23;20036;-87
2022/06/22 14:41:14;;;;;;;0.35;0.28;;;;;;;;;;6150782;23;20007;-87
2022/06/22 14:43:53;;;;;;;0.22;0.15;;;;;;;;;;6178845;23;20088;-89
2022/06/22 14:46:33;;;;;;;0.85;0.25;;;;;;;;;;6152641;23;20557;-87
2022/06/22 14:49:27;;;;;;;;;;;;;;;;;;;;;
2022/06/22 14:52:13;;;;;;;0.57;0.40;;;;;;;;;;6178373;23;20013;-90
2022/06/22 14:54:55;;;;;;;0.50;0.40;;;;;;;;;;6152068;23;20020;-90
2022/06/22 14:57:31;;;;;;;0.80;0.50;;;;;;;;;;6151817;23;20013;-87
2022/06/22 15:00:19;;;;;;;0.20;0.20;;;;;;;;;;6150498;23;20020;-87
2022/06/22 15:02:49;;;;;;;0.32;0.32;;;;;;;;;;6151807;23;20013;-88
2022/06/22 15:05:35;;;;;;;0.20;0.20;;;;;;;;;;6150148;23;20020;-89
2022/06/22 15:08:01;;;;;;;0.30;0.20;;;;;;;;;;6095237;23;20092;-89
2022/06/22 15:10:52;;;;;;;0.45;0.45;;;;;;;;;;6093510;23;20021;-90
2022/06/22 15:13:57;;;;;;;0.20;0.10;;;;;;;;;;6096888;23;20044;-88
2022/06/22 15:16:26;;;;;;;2.85;0.75;;;;;;;;;;6009793;23;20022;-87
2022/06/22 15:19:24;;;;;;;1.48;0.20;;;;;;;;;;6009985;23;20065;-87
2022/06/22 15:22:18;;;;;;;0.30;0.25;;;;;;;;;;6077386;23;20014;-90
2022/06/22 15:24:50;;;;;;;0.20;0.10;;;;;;;;;;6098269;23;20181;-87
2022/06/22 15:27:22;;;;;;;0.20;0.10;;;;;;;;;;6098773;23;20013;-89
2022/06/22 15:32:49;;;;;;;0.90;0.38;;;;;;;;;;6118448;23;19999;-85
2022/06/22 15:35:22;;;;;;;0.32;0.20;;;;;;;;;;6098827;23;20480;-85
2022/06/22 15:38:24;;;;;;;0.20;0.20;;;;;;;;;;6097702;23;20045;-89
2022/06/22 15:41:06;;;;;;;0.30;0.30;;;;;;;;;;6008240;23;20018;-88
2022/06/22 15:43:51;;;;;;;0.50;0.35;;;;;;;;;;6085741;23;20059;-87
2022/06/22 15:46:20;;;;;;;0.20;0.10;;;;;;;;;;6092373;23;20028;-88
2022/06/22 15:48:46;;;;;;;0.20;0.10;;;;;;;;;;6092480;23;20028;-88
2022/06/22 15:51:39;;;;;;;0.20;0.17;;;;;;;;;;6093545;23;20053;-88
2022/06/22 15:54:23;;;;;;;0.30;0.20;;;;;;;;;;6095897;23;20466;-90
2022/06/22 15:56:58;;;;;;;0.43;0.43;;;;;;;;;;6098267;23;20403;-87
2022/06/22 15:59:28;;;;;;;0.20;0.20;;;;;;;;;;6121103;23;20729;-85
2022/06/22 16:02:03;;;;;;;0.20;0.20;;;;;;;;;;6098475;23;20451;-88
2022/06/22 16:04:35;;;;;;;0.20;0.10;;;;;;;;;;6092449;23;20013;-85
2022/06/22 16:07:02;;;;;;;0.20;0.17;;;;;;;;;;6137862;23;20195;-91
2022/06/22 16:09:43;;;;;;;0.47;0.43;;;;;;;;;;6145872;23;20020;-87
2022/06/22 16:15:23;;;;;;;0.20;0.10;;;;;;;;;;6172318;23;20025;-89
2022/06/22 16:17:55;;;;;;;0.20;0.10;;;;;;;;;;6145231;23;20009;-88
2022/06/22 16:20:24;;;;;;;;;;;;;;;;;;6145724;23;20109;-87
2022/06/22 16:22:59;;;;;;;1.13;0.30;;;;;;;;;;6147250;23;19951;-87
2022/06/22 16:25:43;;;;;;;3.80;0.82;;;;;;;;;;6175041;23;20020;-90
2022/06/22 16:28:15;;;;;;;0.45;0.45;;;;;;;;;;6148804;23;20028;-86
2022/06/22 16:30:45;;;;;;;0.90;0.73;;;;;;;;;;6149076;23;20149;-88
2022/06/22 16:33:14;;;;;;;0.38;0.20;;;;;;;;;;6146715;23;20021;-88